Time;durP1;ratioP1;P1;durP2;ratioP2;P2;SDS_P1;SDS_P2;PMS_P1;PMS_P2;Temp;Humidity;BMP_temperature;BMP_pressure;BME280_temperature;BME280_humidity;BME280_pressure;Samples;Min_cycle;Max_cycle;Signal;HPM_P1;HPM_P2
2023/12/06 00:01:34;;;;;;;47.73;23.00;;;;;;;;;;5045544;28;20493;-79
2023/12/06 00:04:02;;;;;;;46.33;25.10;;;;;;;;;;5046133;28;20702;-79
2023/12/06 00:06:30;;;;;;;40.27;22.77;;;;;;;;;;5043598;28;20531;-78
2023/12/06 00:08:59;;;;;;;43.90;24.50;;;;;;;;;;5043678;28;20460;-80
2023/12/06 00:11:27;;;;;;;49.10;24.87;;;;;;;;;;5043467;28;20532;-80
2023/12/06 00:13:55;;;;;;;47.97;24.33;;;;;;;;;;5045841;28;20444;-80
2023/12/06 00:16:23;;;;;;;46.50;23.67;;;;;;;;;;5045917;28;20548;-80
2023/12/06 00:18:50;;;;;;;47.07;26.13;;;;;;;;;;5048259;28;20465;-78
2023/12/06 00:21:18;;;;;;;54.70;26.97;;;;;;;;;;5044498;28;20474;-79
2023/12/06 00:23:46;;;;;;;46.27;27.50;;;;;;;;;;5046401;28;20457;-78
2023/12/06 00:26:15;;;;;;;44.57;24.47;;;;;;;;;;5047448;28;20446;-78
2023/12/06 00:28:43;;;;;;;46.60;24.57;;;;;;;;;;5047747;28;20445;-79
2023/12/06 00:31:11;;;;;;;44.43;24.57;;;;;;;;;;5048335;28;20534;-77
2023/12/06 00:33:38;;;;;;;47.60;26.70;;;;;;;;;;5048293;28;20488;-80
2023/12/06 00:36:06;;;;;;;50.60;24.73;;;;;;;;;;5043425;28;20469;-81
2023/12/06 00:38:34;;;;;;;52.67;26.63;;;;;;;;;;5045763;28;20460;-79
2023/12/06 00:41:02;;;;;;;49.93;26.40;;;;;;;;;;5046951;28;20464;-78
2023/12/06 00:43:31;;;;;;;56.20;27.07;;;;;;;;;;5048976;28;20437;-79
2023/12/06 00:45:59;;;;;;;51.47;26.43;;;;;;;;;;5046975;28;20787;-79
2023/12/06 00:48:26;;;;;;;51.23;24.37;;;;;;;;;;5044504;28;20768;-79
2023/12/06 00:50:55;;;;;;;56.93;26.33;;;;;;;;;;5044340;28;20485;-79
2023/12/06 00:53:26;;;;;;;51.83;27.07;;;;;;;;;;5043770;28;20437;-79
2023/12/06 00:55:53;;;;;;;45.83;24.97;;;;;;;;;;5044617;28;20469;-80
2023/12/06 00:58:22;;;;;;;51.20;25.90;;;;;;;;;;5046812;28;20529;-79
2023/12/06 01:00:51;;;;;;;58.10;29.03;;;;;;;;;;5011077;28;20478;-81
2023/12/06 01:03:18;;;;;;;54.70;25.47;;;;;;;;;;5004014;28;20533;-80
2023/12/06 01:05:46;;;;;;;53.83;28.00;;;;;;;;;;5005765;28;20486;-79
2023/12/06 01:08:14;;;;;;;54.90;29.43;;;;;;;;;;5006106;28;20442;-79
2023/12/06 01:10:47;;;;;;;48.80;27.13;;;;;;;;;;5004980;28;20538;-78
2023/12/06 01:13:15;;;;;;;52.30;26.20;;;;;;;;;;5005310;28;20566;-79
2023/12/06 01:15:43;;;;;;;64.27;31.17;;;;;;;;;;5007237;28;20459;-79
2023/12/06 01:18:12;;;;;;;66.40;33.17;;;;;;;;;;5009536;28;20451;-78
2023/12/06 01:20:40;;;;;;;60.17;28.00;;;;;;;;;;5009379;28;20489;-78
2023/12/06 01:23:11;;;;;;;54.73;29.77;;;;;;;;;;5008582;28;20459;-80
2023/12/06 01:25:39;;;;;;;60.07;31.13;;;;;;;;;;5009801;28;20810;-79
2023/12/06 01:28:07;;;;;;;53.20;28.00;;;;;;;;;;5010728;28;20478;-79
2023/12/06 01:30:34;;;;;;;57.20;29.43;;;;;;;;;;5011131;28;20525;-79
2023/12/06 01:33:02;;;;;;;53.93;29.27;;;;;;;;;;5009748;28;20436;-79
2023/12/06 01:35:31;;;;;;;52.33;28.47;;;;;;;;;;5008755;28;20513;-79
2023/12/06 01:37:59;;;;;;;62.40;30.53;;;;;;;;;;5009787;28;20497;-79
2023/12/06 01:40:29;;;;;;;61.67;27.40;;;;;;;;;;5010222;28;20528;-81
2023/12/06 01:42:57;;;;;;;58.07;27.97;;;;;;;;;;5003947;28;20469;-80
2023/12/06 01:45:25;;;;;;;64.33;31.10;;;;;;;;;;5003555;28;20597;-80
2023/12/06 01:47:53;;;;;;;65.27;31.43;;;;;;;;;;5005178;28;20562;-80
2023/12/06 01:50:22;;;;;;;59.87;30.63;;;;;;;;;;5007312;28;20491;-79
2023/12/06 01:52:51;;;;;;;64.40;32.93;;;;;;;;;;5012219;28;20561;-79
2023/12/06 01:55:21;;;;;;;59.63;31.07;;;;;;;;;;5011427;28;20459;-79
2023/12/06 01:57:49;;;;;;;56.77;29.93;;;;;;;;;;5012495;28;20465;-78
2023/12/06 02:00:20;;;;;;;60.97;30.20;;;;;;;;;;5041708;28;20492;-79
2023/12/06 02:02:48;;;;;;;60.67;27.83;;;;;;;;;;5054066;28;20552;-78
2023/12/06 02:05:17;;;;;;;64.20;31.63;;;;;;;;;;5051998;28;20464;-78
2023/12/06 02:07:45;;;;;;;59.37;30.37;;;;;;;;;;5050846;28;20468;-78
2023/12/06 02:10:23;;;;;;;63.23;29.57;;;;;;;;;;5051003;28;20497;-78
2023/12/06 02:12:51;;;;;;;58.87;28.67;;;;;;;;;;5044863;28;20456;-79
2023/12/06 02:15:19;;;;;;;55.63;28.30;;;;;;;;;;5045329;28;20453;-78
2023/12/06 02:17:47;;;;;;;54.47;27.00;;;;;;;;;;5046165;28;20512;-79
2023/12/06 02:20:19;;;;;;;59.60;28.00;;;;;;;;;;5044373;28;20463;-78
2023/12/06 02:22:47;;;;;;;65.57;30.67;;;;;;;;;;5044751;28;20911;-80
2023/12/06 02:25:16;;;;;;;59.33;29.23;;;;;;;;;;5043067;28;20799;-81
2023/12/06 02:27:44;;;;;;;59.43;31.33;;;;;;;;;;5043770;28;20472;-79
2023/12/06 02:30:16;;;;;;;65.90;31.27;;;;;;;;;;5044093;28;20493;-79
2023/12/06 02:32:44;;;;;;;65.50;32.03;;;;;;;;;;5044929;28;20487;-79
2023/12/06 02:35:15;;;;;;;61.77;29.20;;;;;;;;;;5045440;28;20443;-79
2023/12/06 02:37:44;;;;;;;50.97;28.13;;;;;;;;;;5046167;28;20453;-80
2023/12/06 02:40:19;;;;;;;61.37;29.57;;;;;;;;;;5046960;28;20473;-79
2023/12/06 02:42:48;;;;;;;65.07;30.23;;;;;;;;;;5053155;28;20473;-79
2023/12/06 02:45:16;;;;;;;59.67;28.50;;;;;;;;;;5055481;28;20459;-79
2023/12/06 02:47:44;;;;;;;56.80;28.00;;;;;;;;;;5056211;28;20860;-79
2023/12/06 02:50:11;;;;;;;60.03;30.80;;;;;;;;;;5053015;28;20483;-79
2023/12/06 02:52:40;;;;;;;62.90;28.97;;;;;;;;;;5046955;28;20463;-79
2023/12/06 02:55:08;;;;;;;58.23;28.63;;;;;;;;;;5045624;28;20460;-78
2023/12/06 02:57:36;;;;;;;62.83;28.87;;;;;;;;;;5044792;28;20457;-78
2023/12/06 03:00:10;;;;;;;62.60;28.27;;;;;;;;;;5044520;28;20478;-79
2023/12/06 03:02:38;;;;;;;64.80;30.50;;;;;;;;;;5045964;28;20437;-79
2023/12/06 03:05:06;;;;;;;54.27;29.60;;;;;;;;;;5044041;28;20461;-80
2023/12/06 03:07:36;;;;;;;56.70;27.00;;;;;;;;;;5044558;28;20455;-79
2023/12/06 03:10:07;;;;;;;56.67;28.20;;;;;;;;;;5043253;28;20476;-79
2023/12/06 03:12:35;;;;;;;52.17;25.70;;;;;;;;;;5043482;28;20451;-77
2023/12/06 03:15:02;;;;;;;45.43;23.47;;;;;;;;;;5043605;28;20462;-80
2023/12/06 03:17:31;;;;;;;50.23;24.53;;;;;;;;;;5042935;28;20454;-78
2023/12/06 03:19:59;;;;;;;52.07;26.03;;;;;;;;;;5046156;28;20472;-78
2023/12/06 03:22:27;;;;;;;48.90;24.23;;;;;;;;;;5045755;28;20457;-79
2023/12/06 03:24:55;;;;;;;56.57;26.67;;;;;;;;;;5045228;28;20452;-81
2023/12/06 03:27:23;;;;;;;50.50;25.47;;;;;;;;;;5042119;28;20473;-80
2023/12/06 03:29:50;;;;;;;55.33;26.70;;;;;;;;;;5041947;28;20457;-80
2023/12/06 03:32:18;;;;;;;48.37;25.20;;;;;;;;;;5042366;28;20452;-79
2023/12/06 03:34:47;;;;;;;59.40;28.00;;;;;;;;;;5042066;28;20472;-79
2023/12/06 03:37:15;;;;;;;56.80;28.30;;;;;;;;;;5040877;28;20453;-79
2023/12/06 03:39:43;;;;;;;51.40;27.63;;;;;;;;;;5043251;28;20457;-81
2023/12/06 03:42:10;;;;;;;52.87;25.30;;;;;;;;;;5045179;28;20444;-79
2023/12/06 03:44:38;;;;;;;54.47;27.97;;;;;;;;;;5045433;28;20464;-79
2023/12/06 03:47:06;;;;;;;50.77;26.20;;;;;;;;;;5046495;28;20487;-79
2023/12/06 03:49:34;;;;;;;52.30;25.10;;;;;;;;;;5047205;28;20715;-79
2023/12/06 03:52:03;;;;;;;56.83;25.03;;;;;;;;;;5044009;28;20545;-78
2023/12/06 03:54:30;;;;;;;56.67;26.07;;;;;;;;;;5044415;28;20463;-80
2023/12/06 03:56:58;;;;;;;57.50;27.77;;;;;;;;;;5044585;28;20511;-80
2023/12/06 03:59:30;;;;;;;58.80;28.07;;;;;;;;;;5042962;28;20486;-79
2023/12/06 04:01:58;;;;;;;55.23;25.50;;;;;;;;;;5043676;28;20454;-79
2023/12/06 04:04:26;;;;;;;60.77;26.73;;;;;;;;;;5041933;28;20452;-80
2023/12/06 04:06:53;;;;;;;61.80;28.23;;;;;;;;;;5047373;28;20456;-78
2023/12/06 04:09:23;;;;;;;55.97;28.80;;;;;;;;;;5042241;28;20465;-80
2023/12/06 04:11:51;;;;;;;58.63;29.50;;;;;;;;;;5042702;28;20488;-80
2023/12/06 04:14:19;;;;;;;63.90;28.10;;;;;;;;;;5044485;28;20476;-80
2023/12/06 04:16:49;;;;;;;59.73;30.57;;;;;;;;;;5043637;28;20469;-80
2023/12/06 04:19:17;;;;;;;59.23;29.73;;;;;;;;;;5043844;28;20464;-78
2023/12/06 04:21:44;;;;;;;62.57;30.33;;;;;;;;;;5047349;28;20458;-79
2023/12/06 04:24:12;;;;;;;63.03;28.70;;;;;;;;;;5048679;28;20448;-78
2023/12/06 04:26:41;;;;;;;65.73;32.10;;;;;;;;;;5045879;28;20463;-79
2023/12/06 04:29:09;;;;;;;63.13;30.90;;;;;;;;;;5046189;28;20462;-77
2023/12/06 04:31:36;;;;;;;66.77;30.27;;;;;;;;;;5047348;28;20492;-79
2023/12/06 04:34:04;;;;;;;62.60;31.20;;;;;;;;;;5047865;28;20478;-79
2023/12/06 04:36:32;;;;;;;63.63;30.80;;;;;;;;;;5044384;28;20455;-78
2023/12/06 04:38:59;;;;;;;64.63;30.60;;;;;;;;;;5044524;28;20453;-80
2023/12/06 04:41:27;;;;;;;65.37;31.87;;;;;;;;;;5042583;28;20445;-78
2023/12/06 04:43:56;;;;;;;77.10;32.80;;;;;;;;;;5044124;28;20729;-78
2023/12/06 04:46:24;;;;;;;66.53;28.80;;;;;;;;;;5043443;28;20472;-78
2023/12/06 04:48:51;;;;;;;73.87;32.93;;;;;;;;;;5044109;28;20528;-79
2023/12/06 04:51:19;;;;;;;71.67;30.60;;;;;;;;;;5047318;28;20613;-80
2023/12/06 04:53:47;;;;;;;72.33;32.83;;;;;;;;;;5044737;28;20460;-78
2023/12/06 04:56:15;;;;;;;67.97;30.77;;;;;;;;;;5045749;28;20453;-78
2023/12/06 04:58:42;;;;;;;65.03;31.63;;;;;;;;;;5046015;28;20461;-80
2023/12/06 05:01:12;;;;;;;72.80;31.40;;;;;;;;;;5045889;28;20437;-78
2023/12/06 05:03:39;;;;;;;63.00;30.80;;;;;;;;;;5044283;28;20470;-79
2023/12/06 05:06:07;;;;;;;66.40;29.90;;;;;;;;;;5044489;28;20457;-79
2023/12/06 05:08:35;;;;;;;75.43;34.77;;;;;;;;;;5044725;28;20947;-79
2023/12/06 05:11:03;;;;;;;66.00;31.73;;;;;;;;;;5045081;28;20526;-77
2023/12/06 05:13:31;;;;;;;77.80;32.67;;;;;;;;;;5050760;28;20456;-77
2023/12/06 05:15:59;;;;;;;76.77;31.67;;;;;;;;;;5044676;28;20459;-78
2023/12/06 05:18:28;;;;;;;83.43;33.90;;;;;;;;;;5048736;28;20469;-77
2023/12/06 05:20:56;;;;;;;68.73;31.07;;;;;;;;;;5047431;28;20494;-79
2023/12/06 05:23:24;;;;;;;77.30;31.63;;;;;;;;;;5048849;28;20900;-78
2023/12/06 05:25:51;;;;;;;70.47;31.07;;;;;;;;;;5046501;28;20456;-79
2023/12/06 05:28:19;;;;;;;80.43;33.80;;;;;;;;;;5047539;28;20452;-78
2023/12/06 05:30:47;;;;;;;78.17;35.43;;;;;;;;;;5044896;28;20532;-78
2023/12/06 05:33:15;;;;;;;85.07;31.77;;;;;;;;;;5042213;28;20460;-80
2023/12/06 05:35:45;;;;;;;71.77;32.90;;;;;;;;;;5043183;28;20472;-79
2023/12/06 05:38:12;;;;;;;78.00;33.63;;;;;;;;;;5043952;28;20540;-80
2023/12/06 05:40:40;;;;;;;81.77;31.77;;;;;;;;;;5043818;28;20449;-79
2023/12/06 05:43:08;;;;;;;67.33;31.83;;;;;;;;;;5047523;28;20461;-78
2023/12/06 05:45:36;;;;;;;82.23;33.80;;;;;;;;;;5044500;28;20453;-79
2023/12/06 05:48:04;;;;;;;71.57;31.10;;;;;;;;;;5050946;28;20555;-78
2023/12/06 05:50:32;;;;;;;68.33;32.10;;;;;;;;;;5048413;28;20462;-78
2023/12/06 05:53:02;;;;;;;70.87;33.37;;;;;;;;;;5047626;28;20641;-80
2023/12/06 05:55:30;;;;;;;79.37;32.77;;;;;;;;;;5047922;28;20532;-79
2023/12/06 05:57:57;;;;;;;81.87;33.80;;;;;;;;;;5040994;28;20846;-78
2023/12/06 06:00:27;;;;;;;72.63;33.03;;;;;;;;;;5043162;28;20483;-79
2023/12/06 06:02:56;;;;;;;80.57;34.60;;;;;;;;;;5038608;28;20818;-78
2023/12/06 06:05:24;;;;;;;81.03;35.50;;;;;;;;;;5045688;28;20554;-78
2023/12/06 06:07:52;;;;;;;98.30;38.30;;;;;;;;;;5044211;28;20472;-79
2023/12/06 06:10:21;;;;;;;74.03;31.43;;;;;;;;;;5044841;28;20443;-79
2023/12/06 06:12:49;;;;;;;73.70;37.60;;;;;;;;;;5037424;28;20535;-79
2023/12/06 06:15:17;;;;;;;75.87;32.10;;;;;;;;;;5038234;28;20550;-79
2023/12/06 06:17:44;;;;;;;83.43;35.47;;;;;;;;;;5035440;28;20608;-80
2023/12/06 06:20:20;;;;;;;81.37;35.17;;;;;;;;;;5033723;28;20680;-79
2023/12/06 06:22:48;;;;;;;87.30;38.40;;;;;;;;;;5035954;28;20448;-78
2023/12/06 06:25:16;;;;;;;83.47;37.30;;;;;;;;;;5033825;28;20465;-79
2023/12/06 06:27:45;;;;;;;77.73;33.87;;;;;;;;;;5033350;28;20468;-80
2023/12/06 06:30:17;;;;;;;79.60;36.33;;;;;;;;;;5036763;28;20610;-78
2023/12/06 06:32:45;;;;;;;80.93;36.10;;;;;;;;;;5034002;28;20499;-79
2023/12/06 06:35:13;;;;;;;82.70;35.23;;;;;;;;;;5032826;28;20479;-79
2023/12/06 06:37:40;;;;;;;90.30;38.67;;;;;;;;;;5032807;28;20797;-79
2023/12/06 06:40:10;;;;;;;87.03;35.30;;;;;;;;;;5031649;28;20880;-78
2023/12/06 06:42:38;;;;;;;84.97;37.60;;;;;;;;;;5038130;28;20436;-79
2023/12/06 06:45:08;;;;;;;92.53;35.73;;;;;;;;;;5039267;28;20685;-78
2023/12/06 06:47:36;;;;;;;89.30;36.57;;;;;;;;;;5040305;28;20834;-79
2023/12/06 06:50:11;;;;;;;77.03;34.63;;;;;;;;;;5039783;28;20556;-79
2023/12/06 06:52:38;;;;;;;95.87;44.40;;;;;;;;;;5037019;28;20492;-78
2023/12/06 06:55:07;;;;;;;82.93;35.07;;;;;;;;;;5031737;28;20457;-79
2023/12/06 06:57:35;;;;;;;81.57;35.03;;;;;;;;;;5038153;28;20442;-78
2023/12/06 07:00:09;;;;;;;73.33;36.83;;;;;;;;;;5040349;28;20505;-79
2023/12/06 07:02:39;;;;;;;91.93;38.00;;;;;;;;;;5038249;28;20463;-79
2023/12/06 07:05:12;;;;;;;86.13;37.90;;;;;;;;;;5032400;28;20537;-78
2023/12/06 07:08:05;;;;;;;82.70;37.13;;;;;;;;;;5041079;28;20460;-79
2023/12/06 07:10:37;;;;;;;87.10;35.97;;;;;;;;;;5029502;28;20477;-80
2023/12/06 07:13:04;;;;;;;88.30;37.40;;;;;;;;;;5040684;28;20485;-79
2023/12/06 07:15:32;;;;;;;89.47;36.93;;;;;;;;;;5037835;28;20449;-80
2023/12/06 07:18:02;;;;;;;83.20;35.53;;;;;;;;;;5035952;28;20558;-78
2023/12/06 07:20:29;;;;;;;81.23;34.47;;;;;;;;;;5036408;28;20452;-77
2023/12/06 07:37:44;;;;;;;89.73;34.23;;;;;;;;;;5013530;28;20482;-76
2023/12/06 07:43:02;;;;;;;92.20;36.37;;;;;;;;;;4794370;26;20493;-80
2023/12/06 07:45:30;;;;;;;85.83;36.03;;;;;;;;;;5059071;28;20731;-80
2023/12/06 07:48:00;;;;;;;88.63;38.70;;;;;;;;;;5056178;28;20466;-79
2023/12/06 07:50:31;;;;;;;105.93;37.10;;;;;;;;;;5055684;28;20467;-79
2023/12/06 07:53:00;;;;;;;81.00;34.27;;;;;;;;;;5055028;28;20533;-79
2023/12/06 07:55:31;;;;;;;86.67;35.40;;;;;;;;;;5037248;28;20472;-79
2023/12/06 07:57:59;;;;;;;80.63;35.50;;;;;;;;;;5035761;28;20868;-77
2023/12/06 08:00:28;;;;;;;87.23;35.17;;;;;;;;;;5034674;28;20449;-79
2023/12/06 08:02:56;;;;;;;89.93;37.27;;;;;;;;;;5050797;28;20950;-77
2023/12/06 08:05:25;;;;;;;89.30;35.00;;;;;;;;;;5044514;28;20456;-78
2023/12/06 08:07:53;;;;;;;83.23;37.37;;;;;;;;;;5057649;28;20487;-78
2023/12/06 08:10:23;;;;;;;80.30;32.83;;;;;;;;;;5059852;28;20474;-78
2023/12/06 08:12:53;;;;;;;89.80;36.47;;;;;;;;;;5058908;28;20483;-79
2023/12/06 08:15:21;;;;;;;78.77;35.17;;;;;;;;;;5060618;28;20478;-78
2023/12/06 08:17:49;;;;;;;98.53;36.97;;;;;;;;;;5059673;28;20462;-78
2023/12/06 08:20:20;;;;;;;95.07;37.67;;;;;;;;;;5059243;28;20851;-78
2023/12/06 08:22:48;;;;;;;89.77;39.00;;;;;;;;;;5055771;28;20461;-79
2023/12/06 08:25:15;;;;;;;94.67;39.23;;;;;;;;;;5059692;28;20456;-79
2023/12/06 08:27:46;;;;;;;100.27;37.37;;;;;;;;;;5055219;28;20455;-79
2023/12/06 08:30:20;;;;;;;94.07;37.90;;;;;;;;;;5054869;28;20486;-78
2023/12/06 08:32:49;;;;;;;111.30;39.80;;;;;;;;;;5054361;28;20487;-77
2023/12/06 08:35:17;;;;;;;95.27;38.20;;;;;;;;;;5054298;28;20463;-79
2023/12/06 08:37:45;;;;;;;87.03;35.40;;;;;;;;;;5050559;28;20971;-80
2023/12/06 08:40:24;;;;;;;87.47;36.47;;;;;;;;;;5053008;28;20460;-79
2023/12/06 08:42:54;;;;;;;90.67;36.93;;;;;;;;;;5050724;28;20467;-79
2023/12/06 08:45:22;;;;;;;87.30;37.37;;;;;;;;;;5052630;28;20447;-79
2023/12/06 08:47:50;;;;;;;108.80;38.97;;;;;;;;;;5043900;28;20457;-80
2023/12/06 08:50:21;;;;;;;84.63;34.70;;;;;;;;;;5044990;28;20544;-78
2023/12/06 08:52:49;;;;;;;111.70;38.97;;;;;;;;;;5053361;28;20917;-78
2023/12/06 08:55:20;;;;;;;97.73;36.27;;;;;;;;;;5055865;28;20458;-79
2023/12/06 08:57:50;;;;;;;85.33;36.80;;;;;;;;;;5054110;28;20821;-79
2023/12/06 09:00:22;;;;;;;89.27;37.00;;;;;;;;;;5055138;28;20513;-78
2023/12/06 09:02:50;;;;;;;84.40;35.07;;;;;;;;;;5051671;28;20444;-76
2023/12/06 09:05:18;;;;;;;87.23;37.90;;;;;;;;;;5045488;28;20516;-78
2023/12/06 09:07:46;;;;;;;92.23;36.80;;;;;;;;;;5037299;28;20534;-79
2023/12/06 09:10:23;;;;;;;94.50;38.37;;;;;;;;;;5040451;28;20450;-79
2023/12/06 09:12:53;;;;;;;92.97;39.40;;;;;;;;;;5050698;28;20565;-79
2023/12/06 09:15:22;;;;;;;94.97;36.70;;;;;;;;;;5060535;28;20482;-79
2023/12/06 09:17:50;;;;;;;107.73;36.37;;;;;;;;;;5058804;28;20969;-78
2023/12/06 09:20:37;;;;;;;96.60;35.43;;;;;;;;;;5061568;28;20525;-77
2023/12/06 09:23:06;;;;;;;98.37;36.73;;;;;;;;;;5059001;28;20446;-78
2023/12/06 09:25:33;;;;;;;89.83;36.47;;;;;;;;;;5042266;28;20755;-79
2023/12/06 09:28:03;;;;;;;82.17;32.67;;;;;;;;;;5040278;28;20484;-77
2023/12/06 09:30:32;;;;;;;99.60;37.20;;;;;;;;;;5046638;28;20856;-78
2023/12/06 09:33:00;;;;;;;113.63;44.07;;;;;;;;;;5059626;28;20479;-79
2023/12/06 09:35:28;;;;;;;104.47;37.37;;;;;;;;;;5047031;28;20444;-78
2023/12/06 09:38:02;;;;;;;98.73;38.30;;;;;;;;;;5057550;28;20494;-78
2023/12/06 09:40:30;;;;;;;81.60;36.20;;;;;;;;;;5060271;28;20973;-80
2023/12/06 09:43:02;;;;;;;100.60;35.43;;;;;;;;;;5064028;28;20520;-78
2023/12/06 09:45:30;;;;;;;88.73;34.73;;;;;;;;;;5062477;28;20448;-74
2023/12/06 09:47:59;;;;;;;92.33;33.60;;;;;;;;;;5063391;28;20545;-78
2023/12/06 09:50:29;;;;;;;104.40;37.27;;;;;;;;;;5064814;28;20456;-79
2023/12/06 09:52:57;;;;;;;99.93;35.47;;;;;;;;;;5062860;28;20495;-79
2023/12/06 09:55:28;;;;;;;95.87;37.27;;;;;;;;;;5061458;28;20787;-79
2023/12/06 09:57:56;;;;;;;105.67;40.10;;;;;;;;;;5065954;28;20907;-80
2023/12/06 10:00:24;;;;;;;81.23;35.50;;;;;;;;;;5064348;28;20557;-79
2023/12/06 10:02:52;;;;;;;73.93;31.83;;;;;;;;;;5067844;28;20455;-80
2023/12/06 10:05:21;;;;;;;86.67;33.40;;;;;;;;;;5067963;28;20452;-79
2023/12/06 10:07:50;;;;;;;92.87;36.10;;;;;;;;;;5067423;28;20465;-77
2023/12/06 10:10:21;;;;;;;89.70;31.93;;;;;;;;;;5063334;28;20451;-78
2023/12/06 10:12:52;;;;;;;93.50;34.60;;;;;;;;;;5043431;28;20478;-78
2023/12/06 10:15:20;;;;;;;100.53;34.90;;;;;;;;;;5048258;28;20508;-77
2023/12/06 10:17:48;;;;;;;91.77;37.67;;;;;;;;;;5060915;28;20527;-77
2023/12/06 10:20:29;;;;;;;82.33;32.57;;;;;;;;;;5068111;28;20500;-77
2023/12/06 10:22:58;;;;;;;82.00;31.27;;;;;;;;;;5070811;28;20456;-79
2023/12/06 10:25:26;;;;;;;99.13;36.83;;;;;;;;;;5070477;28;20643;-77
2023/12/06 10:28:00;;;;;;;87.60;35.23;;;;;;;;;;5061437;28;20542;-78
2023/12/06 10:30:31;;;;;;;87.63;34.50;;;;;;;;;;5048332;28;20478;-77
2023/12/06 10:33:00;;;;;;;80.50;32.20;;;;;;;;;;5043700;28;20496;-79
2023/12/06 10:35:28;;;;;;;90.80;33.90;;;;;;;;;;5051760;28;20457;-78
2023/12/06 10:37:57;;;;;;;76.73;33.70;;;;;;;;;;5061784;28;20557;-79
2023/12/06 10:40:29;;;;;;;77.33;33.77;;;;;;;;;;5061529;28;20456;-79
2023/12/06 10:43:01;;;;;;;73.67;33.13;;;;;;;;;;5059558;28;20481;-79
2023/12/06 10:45:29;;;;;;;80.70;30.00;;;;;;;;;;5058778;28;20446;-79
2023/12/06 10:47:58;;;;;;;80.57;33.80;;;;;;;;;;5055194;28;20459;-78
2023/12/06 10:50:30;;;;;;;84.63;30.40;;;;;;;;;;5055914;28;20545;-80
2023/12/06 10:53:00;;;;;;;64.23;29.47;;;;;;;;;;5055247;28;20835;-79
2023/12/06 10:55:32;;;;;;;71.90;33.27;;;;;;;;;;5054330;28;21071;-77
2023/12/06 10:58:01;;;;;;;75.50;30.50;;;;;;;;;;5047365;28;20447;-77
2023/12/06 11:00:33;;;;;;;82.53;30.90;;;;;;;;;;5037233;28;20441;-80
2023/12/06 11:03:01;;;;;;;74.30;29.90;;;;;;;;;;5038494;28;20458;-79
2023/12/06 11:05:31;;;;;;;75.50;32.50;;;;;;;;;;5054163;28;20468;-79
2023/12/06 11:08:06;;;;;;;69.87;29.13;;;;;;;;;;5042114;28;20465;-79
2023/12/06 11:10:47;;;;;;;71.50;31.03;;;;;;;;;;5042631;28;20770;-77
2023/12/06 11:13:36;;;;;;;74.93;29.00;;;;;;;;;;5060376;28;20485;-78
2023/12/06 11:16:16;;;;;;;60.10;26.27;;;;;;;;;;5056458;28;20459;-78
2023/12/06 11:18:46;;;;;;;61.57;27.23;;;;;;;;;;5058653;28;20448;-79
2023/12/06 11:21:15;;;;;;;70.17;30.80;;;;;;;;;;5041196;28;20461;-78
2023/12/06 11:23:44;;;;;;;78.47;32.40;;;;;;;;;;5039424;28;20463;-78
2023/12/06 11:26:13;;;;;;;63.87;29.13;;;;;;;;;;5055470;28;20464;-77
2023/12/06 11:28:41;;;;;;;72.37;30.97;;;;;;;;;;5057814;28;20449;-78
2023/12/06 11:31:10;;;;;;;78.43;30.80;;;;;;;;;;5059715;28;21084;-79
2023/12/06 11:33:38;;;;;;;70.43;30.37;;;;;;;;;;5057723;28;20486;-79
2023/12/06 11:36:20;;;;;;;75.90;30.30;;;;;;;;;;5060227;28;20478;-78
2023/12/06 11:38:48;;;;;;;80.97;32.33;;;;;;;;;;5061711;28;20471;-79
2023/12/06 11:41:18;;;;;;;69.50;29.73;;;;;;;;;;5059827;28;20483;-77
2023/12/06 11:44:07;;;;;;;72.90;30.67;;;;;;;;;;5058632;28;20451;-78
2023/12/06 11:46:38;;;;;;;72.37;30.20;;;;;;;;;;5046120;28;20460;-78
2023/12/06 11:49:09;;;;;;;76.90;31.73;;;;;;;;;;5060214;28;20547;-80
2023/12/06 11:51:40;;;;;;;69.53;28.43;;;;;;;;;;5058302;28;21256;-81
2023/12/06 11:54:09;;;;;;;74.73;28.97;;;;;;;;;;5056296;28;20517;-81
2023/12/06 11:56:38;;;;;;;76.83;28.83;;;;;;;;;;5054417;28;20487;-79
2023/12/06 11:59:07;;;;;;;75.80;32.20;;;;;;;;;;5052156;28;20454;-79
2023/12/06 12:01:36;;;;;;;84.20;31.10;;;;;;;;;;5056476;28;20567;-80
2023/12/06 12:04:04;;;;;;;78.23;30.20;;;;;;;;;;5053128;28;20452;-78
2023/12/06 12:06:32;;;;;;;61.47;28.80;;;;;;;;;;5049500;28;20545;-78
2023/12/06 12:09:02;;;;;;;68.77;28.47;;;;;;;;;;5045797;28;20469;-79
2023/12/06 12:11:35;;;;;;;72.37;30.83;;;;;;;;;;5043616;28;20467;-79
2023/12/06 12:14:08;;;;;;;76.63;31.03;;;;;;;;;;5047772;28;21053;-79
2023/12/06 12:16:36;;;;;;;79.87;30.30;;;;;;;;;;5045828;28;21059;-77
2023/12/06 12:19:04;;;;;;;72.10;31.37;;;;;;;;;;5045864;28;20458;-78
2023/12/06 12:21:32;;;;;;;88.37;32.43;;;;;;;;;;5052657;28;20444;-80
2023/12/06 12:24:03;;;;;;;83.37;31.83;;;;;;;;;;5053941;28;20452;-78
2023/12/06 12:26:31;;;;;;;67.57;29.00;;;;;;;;;;5049032;28;20452;-79
2023/12/06 12:28:59;;;;;;;101.67;40.23;;;;;;;;;;5054779;28;20926;-81
2023/12/06 12:31:31;;;;;;;77.17;28.80;;;;;;;;;;5045413;28;21043;-79
2023/12/06 12:33:59;;;;;;;77.00;28.33;;;;;;;;;;5035945;28;20492;-79
2023/12/06 12:36:27;;;;;;;70.70;27.90;;;;;;;;;;5052832;28;20851;-79
2023/12/06 12:38:55;;;;;;;82.97;29.87;;;;;;;;;;5035725;28;20445;-78
2023/12/06 12:41:25;;;;;;;75.63;25.93;;;;;;;;;;5042345;28;20731;-78
2023/12/06 12:49:30;;;;;;;74.17;31.13;;;;;;;;;;4870846;26;20479;-75
2023/12/06 12:52:06;;;;;;;83.20;33.67;;;;;;;;;;5048024;28;20489;-74
2023/12/06 12:54:40;;;;;;;86.30;31.57;;;;;;;;;;5047628;28;20472;-73
2023/12/06 12:57:10;;;;;;;80.70;31.13;;;;;;;;;;5048516;28;20501;-75
2023/12/06 12:59:40;;;;;;;65.20;28.37;;;;;;;;;;5050077;28;20475;-74
2023/12/06 13:02:18;;;;;;;77.63;32.97;;;;;;;;;;5052210;28;20619;-74
2023/12/06 13:04:51;;;;;;;67.10;29.10;;;;;;;;;;5050652;28;20446;-74
2023/12/06 13:07:19;;;;;;;78.83;31.10;;;;;;;;;;5056007;28;20470;-74
2023/12/06 13:09:54;;;;;;;73.20;29.77;;;;;;;;;;5056729;28;20462;-74
2023/12/06 13:12:22;;;;;;;80.03;29.60;;;;;;;;;;5061256;28;20448;-74
2023/12/06 13:15:05;;;;;;;76.50;30.40;;;;;;;;;;5058524;28;20484;-73
2023/12/06 13:17:39;;;;;;;72.33;29.40;;;;;;;;;;5066777;28;20451;-73
2023/12/06 13:23:27;;;;;;;72.90;30.00;;;;;;;;;;5056172;28;20455;-74
2023/12/06 13:26:08;;;;;;;76.00;29.10;;;;;;;;;;5031916;28;20899;-73
2023/12/06 13:28:53;;;;;;;70.43;26.83;;;;;;;;;;5039318;28;20528;-74
2023/12/06 13:31:24;;;;;;;73.03;28.97;;;;;;;;;;5039425;28;20533;-76
2023/12/06 13:33:58;;;;;;;75.53;31.17;;;;;;;;;;5030338;28;20488;-73
2023/12/06 13:36:46;;;;;;;75.57;29.30;;;;;;;;;;5034904;28;20942;-72
2023/12/06 13:39:22;;;;;;;72.00;30.53;;;;;;;;;;5037128;28;20524;-73
2023/12/06 13:41:50;;;;;;;73.10;28.67;;;;;;;;;;5054070;23;20523;-76
2023/12/06 13:44:17;;;;;;;61.50;31.13;;;;;;;;;;5043631;28;20456;-79
2023/12/06 13:46:46;;;;;;;66.27;27.97;;;;;;;;;;5037592;28;20560;-79
2023/12/06 13:49:13;;;;;;;61.53;26.50;;;;;;;;;;5033871;28;20460;-80
2023/12/06 13:51:41;;;;;;;66.93;27.33;;;;;;;;;;5031010;28;20453;-80
2023/12/06 13:54:09;;;;;;;57.67;25.87;;;;;;;;;;5026124;28;20489;-80
2023/12/06 13:56:38;;;;;;;66.50;26.27;;;;;;;;;;5033246;28;20485;-79
2023/12/06 13:59:08;;;;;;;65.47;25.17;;;;;;;;;;5036146;28;20454;-78
2023/12/06 14:01:35;;;;;;;62.07;25.47;;;;;;;;;;5033010;28;20460;-79
2023/12/06 14:04:04;;;;;;;67.20;24.70;;;;;;;;;;5027990;28;20947;-79
2023/12/06 14:06:32;;;;;;;62.03;24.90;;;;;;;;;;5039995;28;20489;-78
2023/12/06 14:08:59;;;;;;;54.20;26.17;;;;;;;;;;5042008;28;20523;-77
2023/12/06 14:11:27;;;;;;;62.03;24.13;;;;;;;;;;5037270;28;20898;-79
2023/12/06 14:13:59;;;;;;;55.40;24.47;;;;;;;;;;5042386;28;20820;-79
2023/12/06 14:16:28;;;;;;;67.00;25.70;;;;;;;;;;5044522;28;20524;-78
2023/12/06 14:18:56;;;;;;;57.97;25.40;;;;;;;;;;5034672;28;20730;-79
2023/12/06 14:21:23;;;;;;;54.03;22.70;;;;;;;;;;5034691;28;20623;-78
2023/12/06 14:23:52;;;;;;;60.30;27.20;;;;;;;;;;5041614;28;20552;-77
2023/12/06 14:26:21;;;;;;;71.17;23.80;;;;;;;;;;5041882;28;20468;-79
2023/12/06 14:28:49;;;;;;;56.93;24.73;;;;;;;;;;5034688;28;20584;-80
2023/12/06 14:31:19;;;;;;;69.70;27.00;;;;;;;;;;5033892;28;20504;-79
2023/12/06 14:33:46;;;;;;;59.53;26.20;;;;;;;;;;5037020;28;20492;-78
2023/12/06 14:36:14;;;;;;;54.83;24.90;;;;;;;;;;5023628;28;20542;-79
2023/12/06 14:38:42;;;;;;;49.30;24.13;;;;;;;;;;5019486;28;20470;-78
2023/12/06 14:41:10;;;;;;;48.43;22.00;;;;;;;;;;5019853;28;20482;-78
2023/12/06 14:43:38;;;;;;;57.43;24.10;;;;;;;;;;5030910;28;20462;-78
2023/12/06 14:46:11;;;;;;;56.57;25.67;;;;;;;;;;5027886;28;20454;-78
2023/12/06 14:48:48;;;;;;;54.47;25.60;;;;;;;;;;5036512;28;20869;-79
2023/12/06 14:51:18;;;;;;;64.60;26.27;;;;;;;;;;5041638;28;20558;-79
2023/12/06 14:53:47;;;;;;;54.53;23.90;;;;;;;;;;5024329;28;20497;-79
2023/12/06 14:56:15;;;;;;;57.37;23.10;;;;;;;;;;5027799;28;20465;-78